Time;durP1;ratioP1;P1;durP2;ratioP2;P2;SDS_P1;SDS_P2;PMS_P1;PMS_P2;Temp;Humidity;BMP_temperature;BMP_pressure;BME280_temperature;BME280_humidity;BME280_pressure;Samples;Min_cycle;Max_cycle;Signal;HPM_P1;HPM_P2
2022/07/24 00:01:33;;;;;;;8.80;5.82;;;17.40;99.90;;;;;;5072443;28;20047;-65
2022/07/24 00:03:59;;;;;;;7.00;5.85;;;17.30;99.90;;;;;;5070880;28;20135;-65
2022/07/24 00:06:25;;;;;;;7.53;5.93;;;17.30;99.90;;;;;;5072214;28;20119;-65
2022/07/24 00:08:50;;;;;;;7.88;6.03;;;17.30;99.90;;;;;;5072363;28;20032;-66
2022/07/24 00:11:17;;;;;;;11.00;6.00;;;17.30;99.90;;;;;;5071993;28;20036;-66
2022/07/24 00:13:43;;;;;;;7.35;5.60;;;17.30;99.90;;;;;;5070511;28;20059;-66
2022/07/24 00:16:09;;;;;;;8.07;5.55;;;17.20;99.90;;;;;;5073585;28;20071;-66
2022/07/24 00:18:35;;;;;;;6.68;5.97;;;17.20;99.90;;;;;;5071932;28;20418;-66
2022/07/24 00:21:01;;;;;;;6.45;5.38;;;17.20;99.90;;;;;;5071833;28;20439;-66
2022/07/24 00:23:26;;;;;;;7.43;6.10;;;17.20;99.90;;;;;;5071666;28;20040;-66
2022/07/24 00:25:53;;;;;;;9.05;5.88;;;17.10;99.90;;;;;;5071752;28;20119;-66
2022/07/24 00:28:19;;;;;;;11.02;5.85;;;17.10;99.90;;;;;;5071726;28;20041;-66
2022/07/24 00:30:45;;;;;;;7.50;5.72;;;17.10;99.90;;;;;;5071471;28;20080;-66
2022/07/24 00:33:10;;;;;;;10.05;6.45;;;17.00;99.90;;;;;;5071470;28;20040;-66
2022/07/24 00:35:36;;;;;;;9.15;6.38;;;17.00;99.90;;;;;;5071820;28;20036;-66
2022/07/24 00:38:03;;;;;;;8.23;6.25;;;17.00;99.90;;;;;;5071723;28;20048;-66
2022/07/24 00:40:29;;;;;;;8.88;6.05;;;17.00;99.90;;;;;;5071656;28;20045;-66
2022/07/24 00:42:55;;;;;;;9.20;6.85;;;17.00;99.90;;;;;;5071296;28;20045;-66
2022/07/24 00:45:21;;;;;;;7.53;6.43;;;16.90;99.90;;;;;;5071649;28;20177;-66
2022/07/24 00:47:46;;;;;;;7.07;6.38;;;16.90;99.90;;;;;;5071315;28;20052;-66
2022/07/24 00:50:12;;;;;;;8.35;7.03;;;16.90;99.90;;;;;;5071477;28;20040;-66
2022/07/24 00:52:38;;;;;;;7.78;6.22;;;16.90;99.90;;;;;;5071250;28;20032;-66
2022/07/24 00:55:04;;;;;;;10.27;6.57;;;16.90;99.90;;;;;;5071467;28;20051;-67
2022/07/24 00:57:30;;;;;;;8.63;5.93;;;16.90;99.90;;;;;;5072025;28;20040;-66
2022/07/24 00:59:57;;;;;;;8.98;7.30;;;16.90;99.90;;;;;;5073088;28;20047;-66
2022/07/24 01:02:23;;;;;;;8.02;6.78;;;16.90;99.90;;;;;;5071834;28;20066;-66
2022/07/24 01:04:49;;;;;;;7.15;6.45;;;16.90;99.90;;;;;;5071195;28;20049;-66
2022/07/24 01:07:15;;;;;;;7.50;6.60;;;16.90;99.90;;;;;;5070339;28;20512;-66
2022/07/24 01:09:41;;;;;;;9.35;6.60;;;16.80;99.90;;;;;;5071264;28;20044;-66
2022/07/24 01:12:07;;;;;;;7.57;6.60;;;16.80;99.90;;;;;;5070961;28;20132;-66
2022/07/24 01:14:33;;;;;;;9.00;7.05;;;16.70;99.90;;;;;;5070609;28;20068;-66
2022/07/24 01:16:59;;;;;;;9.02;6.57;;;16.60;99.90;;;;;;5069324;28;20137;-66
2022/07/24 01:19:25;;;;;;;7.90;6.47;;;16.60;99.90;;;;;;5069384;28;20050;-66
2022/07/24 01:21:52;;;;;;;10.05;6.63;;;16.50;99.90;;;;;;5070706;28;20124;-66
2022/07/24 01:24:19;;;;;;;10.25;7.25;;;16.60;99.90;;;;;;5069223;28;20044;-66
2022/07/24 01:26:46;;;;;;;9.55;7.03;;;16.60;99.90;;;;;;5069505;28;20045;-66
2022/07/24 01:29:12;;;;;;;9.57;6.45;;;16.60;99.90;;;;;;5070078;28;20036;-66
2022/07/24 01:31:37;;;;;;;7.47;6.55;;;16.60;99.90;;;;;;5069138;28;20049;-66
2022/07/24 01:34:04;;;;;;;8.27;7.13;;;16.70;99.90;;;;;;5070209;28;20119;-66
2022/07/24 01:36:30;;;;;;;7.93;6.90;;;16.60;99.90;;;;;;5069116;28;20048;-66
2022/07/24 01:38:55;;;;;;;9.65;7.03;;;16.60;99.90;;;;;;5068887;28;20041;-65
2022/07/24 01:41:21;;;;;;;8.25;6.93;;;16.50;99.90;;;;;;5070341;28;20113;-67
2022/07/24 01:43:46;;;;;;;8.40;6.90;;;16.40;99.90;;;;;;5068507;28;20048;-66
2022/07/24 01:46:12;;;;;;;11.93;6.68;;;16.40;99.90;;;;;;5070210;28;20045;-66
2022/07/24 01:48:42;;;;;;;12.40;7.05;;;16.40;99.90;;;;;;5068890;28;20036;-66
2022/07/24 01:51:08;;;;;;;8.35;7.22;;;16.30;99.90;;;;;;5070240;28;20405;-66
2022/07/24 01:53:34;;;;;;;8.68;7.38;;;16.20;99.90;;;;;;5069841;28;20048;-66
2022/07/24 01:55:59;;;;;;;9.05;6.85;;;16.10;99.90;;;;;;5070258;28;20393;-65
2022/07/24 01:58:25;;;;;;;11.98;7.25;;;16.10;99.90;;;;;;5068847;28;20170;-66
2022/07/24 02:00:51;;;;;;;10.10;7.60;;;16.10;99.90;;;;;;5068908;28;20080;-66
2022/07/24 02:03:17;;;;;;;8.95;7.07;;;16.10;99.90;;;;;;5070121;28;20045;-66
2022/07/24 02:05:42;;;;;;;9.25;6.82;;;16.20;99.90;;;;;;5071302;28;20060;-67
2022/07/24 02:08:08;;;;;;;12.23;7.90;;;16.20;99.90;;;;;;5072215;28;20054;-66
2022/07/24 02:10:34;;;;;;;9.57;7.53;;;16.20;99.90;;;;;;5068788;28;20052;-66
2022/07/24 02:13:00;;;;;;;8.45;7.22;;;16.10;99.90;;;;;;5069686;28;20036;-66
2022/07/24 02:15:26;;;;;;;9.00;7.03;;;16.10;99.90;;;;;;5068728;28;20459;-66
2022/07/24 02:17:58;;;;;;;8.40;7.40;;;16.10;99.90;;;;;;5069894;28;20120;-66
2022/07/24 02:20:24;;;;;;;10.27;7.45;;;16.10;99.90;;;;;;5069983;28;20042;-66
2022/07/24 02:22:50;;;;;;;8.43;7.32;;;16.10;99.90;;;;;;5069772;28;20116;-66
2022/07/24 02:25:16;;;;;;;13.82;7.88;;;16.00;99.90;;;;;;5068934;28;20032;-66
2022/07/24 02:27:42;;;;;;;11.10;7.95;;;15.90;99.90;;;;;;5070239;28;20132;-66
2022/07/24 02:30:14;;;;;;;12.10;8.27;;;15.80;99.90;;;;;;5069850;28;20028;-66
2022/07/24 02:32:40;;;;;;;8.70;7.78;;;15.80;99.90;;;;;;5069537;28;20068;-66
2022/07/24 02:35:06;;;;;;;11.00;7.95;;;15.90;99.90;;;;;;5069982;28;20072;-66
2022/07/24 02:37:34;;;;;;;11.80;8.45;;;15.80;99.90;;;;;;5068379;28;20056;-66
2022/07/24 02:40:00;;;;;;;9.13;7.72;;;15.80;99.90;;;;;;5069725;28;20115;-66
2022/07/24 02:42:25;;;;;;;9.02;7.68;;;15.90;99.90;;;;;;5069881;28;20570;-66
2022/07/24 02:44:51;;;;;;;10.10;7.93;;;16.00;99.90;;;;;;5069892;28;20040;-66
2022/07/24 02:47:16;;;;;;;10.55;8.13;;;16.00;99.90;;;;;;5069904;28;20079;-66
2022/07/24 02:49:42;;;;;;;12.90;8.23;;;16.00;99.90;;;;;;5069799;28;20052;-66
2022/07/24 02:52:07;;;;;;;9.85;8.18;;;16.00;99.90;;;;;;5069775;28;20036;-65
2022/07/24 02:54:33;;;;;;;11.73;8.57;;;16.00;99.90;;;;;;5069393;28;20160;-66
2022/07/24 02:56:58;;;;;;;11.27;8.35;;;16.00;99.90;;;;;;5069915;28;20049;-66
2022/07/24 02:59:24;;;;;;;10.85;8.60;;;15.90;99.90;;;;;;5069617;28;20108;-66
2022/07/24 03:01:50;;;;;;;10.55;8.07;;;15.90;99.90;;;;;;5069638;28;20040;-66
2022/07/24 03:04:15;;;;;;;9.20;7.45;;;16.00;99.90;;;;;;5069291;28;20064;-66
2022/07/24 03:06:41;;;;;;;10.73;8.00;;;15.90;99.90;;;;;;5069480;28;20044;-66
2022/07/24 03:09:06;;;;;;;11.40;8.68;;;16.00;99.90;;;;;;5069283;28;20048;-66
2022/07/24 03:11:32;;;;;;;10.50;8.00;;;16.00;99.90;;;;;;5069651;28;20051;-66
2022/07/24 03:13:57;;;;;;;10.38;8.43;;;15.90;99.90;;;;;;5069569;28;20038;-66
2022/07/24 03:16:23;;;;;;;9.63;7.40;;;15.90;99.90;;;;;;5071942;28;20527;-66
2022/07/24 03:18:48;;;;;;;12.02;7.80;;;15.90;99.90;;;;;;5070800;28;20515;-66
2022/07/24 03:21:17;;;;;;;9.15;7.43;;;15.90;99.90;;;;;;5069357;28;20431;-66
2022/07/24 03:23:43;;;;;;;11.43;7.88;;;15.90;99.90;;;;;;5069188;28;20040;-66
2022/07/24 03:26:09;;;;;;;11.82;8.27;;;16.00;99.90;;;;;;5068169;28;20079;-66
2022/07/24 03:28:35;;;;;;;10.30;8.20;;;16.00;99.90;;;;;;5069529;28;20103;-65
2022/07/24 03:31:01;;;;;;;9.57;8.02;;;16.00;99.90;;;;;;5071927;28;20037;-66
2022/07/24 03:33:27;;;;;;;11.90;7.97;;;16.00;99.90;;;;;;5069678;28;20132;-66
2022/07/24 03:35:53;;;;;;;11.63;8.10;;;16.00;99.90;;;;;;5070077;28;20033;-66
2022/07/24 03:38:19;;;;;;;12.70;8.70;;;16.00;99.90;;;;;;5068727;28;20036;-66
2022/07/24 03:40:44;;;;;;;11.32;8.15;;;16.00;99.90;;;;;;5069799;28;20043;-65
2022/07/24 03:43:10;;;;;;;8.70;7.55;;;16.00;99.90;;;;;;5072727;28;20534;-66
2022/07/24 03:45:36;;;;;;;8.85;7.68;;;16.00;99.90;;;;;;5071693;28;20488;-65
2022/07/24 03:48:01;;;;;;;11.25;7.95;;;15.90;99.90;;;;;;5071318;28;20093;-65
2022/07/24 03:50:27;;;;;;;10.20;8.50;;;16.00;99.90;;;;;;5072717;28;20040;-65
2022/07/24 03:52:53;;;;;;;11.63;7.68;;;15.90;99.90;;;;;;5072291;28;20039;-65
2022/07/24 03:55:18;;;;;;;9.43;7.75;;;16.00;99.90;;;;;;5072503;28;20079;-65
2022/07/24 03:57:44;;;;;;;10.23;8.20;;;16.00;99.90;;;;;;5071219;28;20063;-65
2022/07/24 04:00:10;;;;;;;8.50;7.57;;;16.10;99.90;;;;;;5072237;28;20173;-65
2022/07/24 04:02:36;;;;;;;11.07;8.27;;;16.00;99.90;;;;;;5070566;28;20047;-65
2022/07/24 04:05:02;;;;;;;10.00;8.27;;;15.90;99.90;;;;;;5072223;28;20634;-66
2022/07/24 04:07:27;;;;;;;9.23;7.90;;;16.00;99.90;;;;;;5072401;28;20044;-65
2022/07/24 04:09:53;;;;;;;13.60;8.55;;;16.00;99.90;;;;;;5071245;28;20421;-65
2022/07/24 04:12:19;;;;;;;10.20;7.60;;;16.00;99.90;;;;;;5070963;28;20427;-64
2022/07/24 04:14:44;;;;;;;8.57;7.68;;;16.00;99.90;;;;;;5071926;28;20032;-65
2022/07/24 04:17:10;;;;;;;12.35;8.40;;;16.10;99.90;;;;;;5072003;28;20049;-65
2022/07/24 04:19:35;;;;;;;12.32;7.43;;;16.10;99.90;;;;;;5072024;28;20120;-65
2022/07/24 04:22:01;;;;;;;12.32;8.35;;;16.10;99.90;;;;;;5071928;28;20041;-64
2022/07/24 04:24:26;;;;;;;9.60;7.70;;;16.10;99.90;;;;;;5071715;28;20143;-65
2022/07/24 04:26:52;;;;;;;12.70;7.75;;;16.00;99.90;;;;;;5074362;28;20041;-65
2022/07/24 04:29:17;;;;;;;11.27;8.55;;;16.10;99.90;;;;;;5070296;28;20045;-65
2022/07/24 04:31:43;;;;;;;9.23;7.75;;;16.10;99.90;;;;;;5072040;28;20042;-66
2022/07/24 04:34:09;;;;;;;10.80;7.32;;;16.10;99.90;;;;;;5070241;28;20040;-65
2022/07/24 04:36:34;;;;;;;13.77;7.72;;;16.10;99.90;;;;;;5070136;28;20052;-65
2022/07/24 04:39:00;;;;;;;8.43;6.97;;;16.10;99.90;;;;;;5071450;28;20048;-65
2022/07/24 04:41:26;;;;;;;10.93;7.57;;;16.10;99.90;;;;;;5070348;28;20178;-65
2022/07/24 04:43:51;;;;;;;10.25;7.40;;;16.20;99.90;;;;;;5071014;28;20358;-65
2022/07/24 04:46:18;;;;;;;8.88;7.65;;;16.10;99.90;;;;;;5071444;28;20493;-65
2022/07/24 04:48:43;;;;;;;11.95;7.90;;;16.10;99.90;;;;;;5071258;28;20040;-64
2022/07/24 04:51:09;;;;;;;8.98;7.05;;;16.20;99.90;;;;;;5071188;28;20512;-65
2022/07/24 04:53:34;;;;;;;12.38;7.85;;;16.20;99.90;;;;;;5070939;28;20037;-65
2022/07/24 04:56:00;;;;;;;8.18;6.80;;;16.20;99.90;;;;;;5071189;28;20032;-65
2022/07/24 04:58:26;;;;;;;11.23;6.85;;;16.20;99.90;;;;;;5071233;28;20064;-65
2022/07/24 05:00:52;;;;;;;8.88;7.75;;;16.40;99.90;;;;;;5071191;28;20044;-65
2022/07/24 05:03:18;;;;;;;11.85;7.88;;;16.50;99.90;;;;;;5070777;28;20131;-66
2022/07/24 05:05:44;;;;;;;8.90;7.35;;;16.60;99.90;;;;;;5071117;28;20139;-66
2022/07/24 05:08:10;;;;;;;8.73;6.78;;;16.80;99.90;;;;;;5071108;28;20115;-66
2022/07/24 05:10:35;;;;;;;10.57;7.43;;;16.80;99.90;;;;;;5070936;28;20041;-67
2022/07/24 05:13:01;;;;;;;12.70;7.22;;;16.80;99.90;;;;;;5070719;28;20086;-65
2022/07/24 05:15:27;;;;;;;10.18;6.68;;;17.00;99.90;;;;;;5069488;28;20128;-65
2022/07/24 05:17:52;;;;;;;8.23;7.28;;;16.90;99.90;;;;;;5071027;28;20080;-65
2022/07/24 05:20:18;;;;;;;8.27;7.38;;;16.90;99.90;;;;;;5070739;28;20041;-65
2022/07/24 05:22:44;;;;;;;8.40;6.93;;;17.00;99.90;;;;;;5070406;28;20056;-65
2022/07/24 05:25:09;;;;;;;9.30;6.68;;;17.10;99.90;;;;;;5070442;28;20036;-65
2022/07/24 05:27:35;;;;;;;10.60;6.88;;;17.20;99.90;;;;;;5070539;28;20045;-66
2022/07/24 05:30:01;;;;;;;9.57;7.38;;;17.20;99.90;;;;;;5070806;28;20042;-65
2022/07/24 05:32:26;;;;;;;9.45;7.57;;;17.30;99.90;;;;;;5069390;28;20522;-66
2022/07/24 05:34:52;;;;;;;10.40;7.32;;;17.50;99.90;;;;;;5072594;28;20045;-66
2022/07/24 05:37:17;;;;;;;11.40;8.18;;;17.60;99.90;;;;;;5073391;28;20032;-66
2022/07/24 05:39:43;;;;;;;13.98;7.13;;;17.80;99.90;;;;;;5070475;28;20048;-65
2022/07/24 05:42:09;;;;;;;10.50;6.85;;;18.00;99.90;;;;;;5070453;28;20051;-65
2022/07/24 05:44:34;;;;;;;8.70;7.32;;;17.90;99.90;;;;;;5070391;28;20036;-66
2022/07/24 05:47:00;;;;;;;9.80;7.03;;;18.10;99.90;;;;;;5070593;28;20605;-66
2022/07/24 05:49:25;;;;;;;10.68;7.40;;;18.30;99.90;;;;;;5070156;28;20400;-66
2022/07/24 05:51:51;;;;;;;10.20;7.72;;;18.40;99.90;;;;;;5069987;28;20064;-66
2022/07/24 05:54:17;;;;;;;7.97;7.18;;;18.40;99.90;;;;;;5069810;28;20123;-66
2022/07/24 05:56:42;;;;;;;9.15;7.22;;;18.60;99.90;;;;;;5070074;28;20083;-66
2022/07/24 05:59:08;;;;;;;10.02;7.78;;;18.70;99.90;;;;;;5070096;28;20115;-66
2022/07/24 06:01:34;;;;;;;12.73;8.02;;;18.80;99.90;;;;;;5068762;28;20044;-66
2022/07/24 06:03:59;;;;;;;10.10;8.50;;;19.00;99.90;;;;;;5070035;28;20040;-66
2022/07/24 06:06:25;;;;;;;10.48;8.23;;;19.20;99.90;;;;;;5070318;28;20075;-66
2022/07/24 06:08:50;;;;;;;13.23;9.02;;;19.40;99.90;;;;;;5070463;28;20059;-66
2022/07/24 06:11:17;;;;;;;15.68;8.90;;;19.50;99.90;;;;;;5070136;28;20071;-66
2022/07/24 06:13:43;;;;;;;14.30;10.43;;;19.60;99.90;;;;;;5068882;28;20442;-66
2022/07/24 06:16:09;;;;;;;17.00;11.32;;;19.70;99.90;;;;;;5070540;28;20146;-66
2022/07/24 06:18:35;;;;;;;13.68;10.00;;;19.80;99.90;;;;;;5070270;28;20053;-66
2022/07/24 06:21:00;;;;;;;17.88;10.70;;;20.00;99.90;;;;;;5070229;28;20056;-66
2022/07/24 06:23:26;;;;;;;14.60;10.52;;;20.00;99.90;;;;;;5070116;28;20036;-66
2022/07/24 06:25:51;;;;;;;16.05;10.73;;;20.20;99.90;;;;;;5070091;28;20456;-66
2022/07/24 06:28:17;;;;;;;14.57;10.55;;;20.20;99.90;;;;;;5069020;28;20040;-66
2022/07/24 06:30:42;;;;;;;16.00;11.13;;;20.30;99.90;;;;;;5069673;28;20516;-67
2022/07/24 06:33:08;;;;;;;18.52;10.63;;;20.40;99.90;;;;;;5068349;28;20037;-66
2022/07/24 06:35:34;;;;;;;15.90;10.65;;;20.50;99.90;;;;;;5069942;28;20089;-66
2022/07/24 06:38:00;;;;;;;16.27;11.30;;;20.50;99.90;;;;;;5068921;28;20141;-66
2022/07/24 06:40:26;;;;;;;13.18;10.45;;;20.50;99.90;;;;;;5070353;28;20403;-68
2022/07/24 06:42:52;;;;;;;19.05;10.63;;;20.60;99.90;;;;;;5070119;28;20054;-67
2022/07/24 06:45:18;;;;;;;16.70;10.75;;;20.70;99.90;;;;;;5073063;28;20481;-67
2022/07/24 06:47:43;;;;;;;15.38;11.48;;;20.70;99.90;;;;;;5071114;28;20443;-67
2022/07/24 06:50:11;;;;;;;14.20;11.25;;;20.70;99.90;;;;;;5069845;28;20489;-67
2022/07/24 06:52:36;;;;;;;15.15;10.43;;;20.80;99.90;;;;;;5068308;28;20045;-67
2022/07/24 06:55:03;;;;;;;16.05;11.05;;;20.90;99.90;;;;;;5070036;28;20032;-67
2022/07/24 06:57:28;;;;;;;15.82;11.90;;;21.10;99.90;;;;;;5068558;28;20058;-67
2022/07/24 06:59:54;;;;;;;16.17;12.00;;;21.10;99.90;;;;;;5076785;28;20044;-68
2022/07/24 07:02:21;;;;;;;17.27;11.65;;;21.20;99.90;;;;;;5096040;28;20058;-67
2022/07/24 07:04:47;;;;;;;18.65;12.43;;;21.10;99.90;;;;;;5100055;28;20499;-68
2022/07/24 07:07:14;;;;;;;15.52;11.75;;;21.10;99.90;;;;;;5087385;28;20155;-67
2022/07/24 07:09:39;;;;;;;18.45;11.57;;;21.10;99.90;;;;;;5093340;28;20032;-67
2022/07/24 07:12:05;;;;;;;18.90;12.40;;;21.20;99.90;;;;;;5093940;28;20115;-67
2022/07/24 07:14:31;;;;;;;17.27;12.63;;;21.30;99.90;;;;;;5093483;28;20040;-68
2022/07/24 07:16:57;;;;;;;22.33;13.30;;;21.30;99.90;;;;;;5093624;28;20043;-68
2022/07/24 07:19:22;;;;;;;16.80;12.77;;;21.40;99.90;;;;;;5093526;28;20089;-66
2022/07/24 07:21:48;;;;;;;19.05;13.55;;;21.50;99.90;;;;;;5093550;28;20674;-66
2022/07/24 07:24:13;;;;;;;19.98;13.65;;;21.50;99.90;;;;;;5093194;28;20078;-66
2022/07/24 07:26:39;;;;;;;18.67;12.55;;;21.70;99.90;;;;;;5094978;28;20106;-66
2022/07/24 07:29:05;;;;;;;15.70;12.38;;;21.80;99.90;;;;;;5101900;28;20054;-66
2022/07/24 07:31:30;;;;;;;18.92;13.80;;;21.90;99.90;;;;;;5082421;28;20082;-66
2022/07/24 07:33:57;;;;;;;17.33;12.32;;;21.90;99.90;;;;;;5081892;28;20044;-66
2022/07/24 07:36:23;;;;;;;15.88;12.35;;;22.00;99.90;;;;;;5083379;28;20053;-66
2022/07/24 07:38:49;;;;;;;17.98;12.90;;;22.00;99.90;;;;;;5085187;28;20097;-66
2022/07/24 07:41:15;;;;;;;19.40;12.13;;;22.20;99.90;;;;;;5082671;28;20028;-66
2022/07/24 07:43:41;;;;;;;16.83;11.73;;;22.20;99.90;;;;;;5084176;28;20058;-66
2022/07/24 07:46:07;;;;;;;16.88;11.98;;;22.10;99.90;;;;;;5081339;28;20519;-66
2022/07/24 07:48:32;;;;;;;17.58;12.10;;;22.30;99.90;;;;;;5082931;28;20063;-66
2022/07/24 07:50:58;;;;;;;19.20;12.60;;;22.40;99.90;;;;;;5083269;28;20071;-67
2022/07/24 07:53:24;;;;;;;17.08;12.13;;;22.40;99.90;;;;;;5087595;28;20032;-66
2022/07/24 07:55:51;;;;;;;18.02;11.85;;;22.40;99.90;;;;;;5085722;28;20527;-66
2022/07/24 07:58:22;;;;;;;19.73;12.15;;;22.50;99.90;;;;;;5082733;28;20058;-68
2022/07/24 08:00:48;;;;;;;17.30;11.70;;;22.70;99.90;;;;;;5083490;28;20046;-68
2022/07/24 08:03:13;;;;;;;16.98;11.32;;;22.80;99.90;;;;;;5088581;28;20131;-68
2022/07/24 08:05:39;;;;;;;16.20;12.25;;;22.80;99.90;;;;;;5091758;28;20048;-67
2022/07/24 08:08:05;;;;;;;18.77;11.65;;;22.80;99.90;;;;;;5092306;28;20040;-67
2022/07/24 08:10:30;;;;;;;16.55;12.20;;;23.00;99.90;;;;;;5093915;28;20032;-68
2022/07/24 08:12:56;;;;;;;17.10;12.60;;;23.00;99.90;;;;;;5092348;28;20063;-69
2022/07/24 08:15:21;;;;;;;19.45;12.85;;;23.10;99.90;;;;;;5092288;28;20123;-68
2022/07/24 08:17:52;;;;;;;20.10;11.73;;;23.10;99.90;;;;;;5092610;28;20048;-68
2022/07/24 08:20:18;;;;;;;17.27;11.65;;;23.10;99.90;;;;;;5091120;28;20051;-68
2022/07/24 08:22:43;;;;;;;14.73;10.90;;;23.20;99.90;;;;;;5092176;28;20492;-68
2022/07/24 08:25:09;;;;;;;17.30;9.23;;;23.20;99.90;;;;;;5092508;28;20051;-68
2022/07/24 08:27:38;;;;;;;17.73;10.00;;;23.30;99.90;;;;;;5092337;28;20036;-69
2022/07/24 08:30:07;;;;;;;11.15;9.13;;;23.40;99.90;;;;;;5092169;28;20549;-68
2022/07/24 08:32:33;;;;;;;11.90;9.13;;;23.40;99.90;;;;;;5091773;28;20540;-68
2022/07/24 08:34:58;;;;;;;12.23;8.73;;;23.50;99.90;;;;;;5090739;28;20119;-68
2022/07/24 08:37:24;;;;;;;13.27;8.07;;;23.70;99.90;;;;;;5091976;28;20522;-69
2022/07/24 08:39:49;;;;;;;10.50;7.25;;;23.70;99.90;;;;;;5092056;28;20422;-69
2022/07/24 08:42:15;;;;;;;13.00;7.32;;;23.80;99.90;;;;;;5091939;28;20046;-69
2022/07/24 08:44:41;;;;;;;10.25;6.35;;;23.80;99.90;;;;;;5091776;28;20115;-69
2022/07/24 08:47:08;;;;;;;8.20;5.85;;;23.80;99.90;;;;;;5091853;28;20145;-69
2022/07/24 08:49:35;;;;;;;12.25;6.63;;;24.00;99.90;;;;;;5092000;28;20496;-69
2022/07/24 08:52:07;;;;;;;9.30;7.07;;;24.10;99.90;;;;;;5092080;28;20032;-69
2022/07/24 08:54:33;;;;;;;;;;;24.10;99.90;;;;;;5090201;28;20083;-70
2022/07/24 08:56:59;;;;;;;7.78;5.82;;;24.30;99.90;;;;;;5092179;28;19915;-69
2022/07/24 08:59:25;;;;;;;10.40;5.63;;;24.30;99.90;;;;;;5091738;28;20040;-70
2022/07/24 09:01:51;;;;;;;7.50;4.13;;;24.30;99.90;;;;;;5095474;28;20036;-71
2022/07/24 09:04:40;;;;;;;5.53;3.80;;;24.40;99.90;;;;;;5095414;28;20084;-70
2022/07/24 09:07:12;;;;;;;5.05;3.85;;;24.40;99.90;;;;;;5092955;28;20044;-70
2022/07/24 09:09:39;;;;;;;4.68;3.65;;;24.50;99.90;;;;;;5092499;28;20484;-69
2022/07/24 09:12:08;;;;;;;4.32;3.58;;;24.60;99.90;;;;;;5091332;28;20044;-69
2022/07/24 09:14:35;;;;;;;7.38;3.65;;;24.60;99.90;;;;;;5090201;28;20396;-70
2022/07/24 09:17:03;;;;;;;3.75;3.45;;;24.60;99.90;;;;;;5092027;28;20508;-71
2022/07/24 09:19:29;;;;;;;5.43;3.55;;;24.60;99.90;;;;;;5090520;28;20079;-72
2022/07/24 09:21:54;;;;;;;4.93;3.58;;;24.60;99.90;;;;;;5090440;28;20098;-70
2022/07/24 09:24:21;;;;;;;6.13;3.17;;;24.50;99.90;;;;;;5089326;28;20048;-70
2022/07/24 09:26:55;;;;;;;6.30;3.50;;;24.60;99.90;;;;;;5091928;28;20568;-70
2022/07/24 09:29:23;;;;;;;4.70;3.50;;;24.60;99.90;;;;;;5097528;28;20055;-70
2022/07/24 09:32:02;;;;;;;5.95;3.80;;;24.60;99.90;;;;;;5081851;28;20041;-72
2022/07/24 09:34:38;;;;;;;4.07;2.90;;;24.60;99.90;;;;;;5080346;28;20095;-73
2022/07/24 09:37:06;;;;;;;3.65;2.97;;;24.70;99.90;;;;;;5079270;28;20725;-72
2022/07/24 09:39:33;;;;;;;4.60;3.40;;;24.80;99.90;;;;;;5079423;28;20078;-71
2022/07/24 09:42:01;;;;;;;3.83;3.25;;;24.90;99.90;;;;;;5080217;28;20036;-71
2022/07/24 09:44:28;;;;;;;5.03;3.53;;;24.90;99.90;;;;;;5080250;28;20097;-72
2022/07/24 09:47:04;;;;;;;6.70;3.20;;;25.00;99.90;;;;;;5077523;28;20052;-69
2022/07/24 09:49:30;;;;;;;6.68;3.40;;;25.00;99.90;;;;;;5078505;28;20434;-70
2022/07/24 09:52:15;;;;;;;4.07;3.33;;;25.10;99.90;;;;;;5081468;28;20035;-71
2022/07/24 09:54:43;;;;;;;7.45;3.30;;;25.10;99.90;;;;;;5078661;28;20434;-71
2022/07/24 09:57:17;;;;;;;4.65;3.00;;;25.20;99.90;;;;;;5078347;28;20047;-71
2022/07/24 10:00:09;;;;;;;3.28;2.97;;;25.30;99.90;;;;;;5079807;28;20449;-71
2022/07/24 10:02:36;;;;;;;4.88;3.20;;;25.30;99.90;;;;;;5065445;28;20056;-70
2022/07/24 10:05:04;;;;;;;4.65;2.65;;;25.30;99.90;;;;;;5069306;28;20102;-70
2022/07/24 10:07:30;;;;;;;3.53;2.92;;;25.50;99.90;;;;;;5068695;28;20469;-70
2022/07/24 10:09:58;;;;;;;3.45;3.00;;;25.50;99.90;;;;;;5073309;28;20052;-71
2022/07/24 10:12:29;;;;;;;4.43;2.75;;;25.50;99.90;;;;;;5087040;28;20040;-70
2022/07/24 10:14:57;;;;;;;3.10;2.80;;;25.50;99.90;;;;;;5075578;28;20124;-70
2022/07/24 10:17:32;;;;;;;5.05;3.45;;;25.60;99.90;;;;;;5069062;28;20585;-70
2022/07/24 10:20:04;;;;;;;7.13;3.10;;;25.60;99.90;;;;;;5070060;28;20078;-70
2022/07/24 10:22:38;;;;;;;4.93;2.80;;;25.60;99.90;;;;;;5069867;28;20094;-70
2022/07/24 10:25:09;;;;;;;3.58;2.60;;;25.60;99.90;;;;;;5072437;28;20040;-72
2022/07/24 10:27:38;;;;;;;6.30;3.10;;;25.70;99.90;;;;;;5053622;28;20048;-73
2022/07/24 10:30:06;;;;;;;3.40;2.88;;;25.70;99.90;;;;;;5053372;28;20048;-72
2022/07/24 10:32:33;;;;;;;3.88;2.83;;;25.70;99.90;;;;;;5053721;28;20039;-73
2022/07/24 10:35:18;;;;;;;2.92;2.40;;;25.80;99.90;;;;;;5053839;28;20040;-72
2022/07/24 10:38:06;;;;;;;9.38;2.70;;;25.90;99.90;;;;;;5071030;28;20405;-73
2022/07/24 10:40:51;;;;;;;3.67;2.40;;;25.80;99.90;;;;;;5075588;28;20401;-73
2022/07/24 10:43:18;;;;;;;4.80;2.58;;;25.80;99.90;;;;;;5072963;28;20071;-73
2022/07/24 10:45:46;;;;;;;3.63;2.53;;;25.70;99.90;;;;;;5073594;28;20040;-73
2022/07/24 10:48:22;;;;;;;5.05;2.42;;;25.80;99.90;;;;;;5074714;28;20504;-72
2022/07/24 10:51:08;;;;;;;3.10;2.50;;;25.80;99.90;;;;;;5074193;28;20115;-73
2022/07/24 10:53:36;;;;;;;3.55;2.95;;;25.80;99.90;;;;;;5074119;28;20106;-74
2022/07/24 10:56:21;;;;;;;4.25;2.60;;;25.80;99.90;;;;;;5075397;28;20076;-73
2022/07/24 10:58:51;;;;;;;3.33;2.30;;;25.90;99.90;;;;;;5073711;28;20455;-73
2022/07/24 11:01:51;;;;;;;4.65;2.88;;;25.90;99.90;;;;;;5073227;28;20401;-73
2022/07/24 11:04:22;;;;;;;3.08;2.75;;;25.90;99.90;;;;;;5074513;28;20040;-73
2022/07/24 11:06:56;;;;;;;4.05;2.85;;;26.10;99.90;;;;;;5074686;28;20141;-72
2022/07/24 11:09:24;;;;;;;3.50;2.75;;;26.20;99.90;;;;;;5074407;28;20047;-73
2022/07/24 11:11:55;;;;;;;5.15;2.80;;;26.20;99.90;;;;;;5057586;28;20068;-73
2022/07/24 11:14:40;;;;;;;4.13;2.53;;;26.10;99.90;;;;;;5074307;28;20178;-73
2022/07/24 11:17:39;;;;;;;2.35;2.10;;;26.10;99.90;;;;;;5074931;28;20052;-73
2022/07/24 11:20:07;;;;;;;2.97;2.33;;;26.00;99.90;;;;;;5094142;28;20060;-75
2022/07/24 11:22:51;;;;;;;4.25;2.67;;;26.00;99.90;;;;;;5097618;28;20126;-73
2022/07/24 11:25:21;;;;;;;3.63;2.42;;;26.00;99.90;;;;;;5082960;28;20490;-73
2022/07/24 11:28:13;;;;;;;4.65;2.35;;;26.00;99.90;;;;;;5083578;28;20035;-73
2022/07/24 11:30:46;;;;;;;2.67;2.20;;;26.20;99.90;;;;;;5078648;28;20136;-73
2022/07/24 11:33:17;;;;;;;3.55;2.38;;;26.40;99.90;;;;;;5077742;28;20092;-73
2022/07/24 11:35:43;;;;;;;4.65;2.60;;;26.60;99.90;;;;;;5077511;28;20417;-76
2022/07/24 11:38:08;;;;;;;2.95;2.63;;;26.60;99.90;;;;;;5074177;28;20094;-74
2022/07/24 11:40:35;;;;;;;3.00;2.35;;;26.60;99.90;;;;;;5075465;28;20484;-73
2022/07/24 11:43:06;;;;;;;3.45;2.58;;;26.50;99.90;;;;;;5073302;28;20072;-73
2022/07/24 11:45:32;;;;;;;3.63;2.50;;;26.70;99.90;;;;;;5073558;28;20040;-73
2022/07/24 11:47:58;;;;;;;4.95;2.72;;;26.70;99.90;;;;;;5073117;28;20497;-73
2022/07/24 11:50:25;;;;;;;6.35;2.75;;;26.70;99.90;;;;;;5072683;28;20039;-73
2022/07/24 11:52:52;;;;;;;3.70;3.05;;;26.70;99.90;;;;;;5073660;28;20068;-74
2022/07/24 11:55:20;;;;;;;5.50;2.50;;;26.70;99.90;;;;;;5073889;28;20041;-73
2022/07/24 11:57:49;;;;;;;5.65;2.50;;;26.80;99.90;;;;;;5074743;28;20037;-73
2022/07/24 12:00:19;;;;;;;4.88;2.55;;;26.90;99.80;;;;;;5072864;28;20036;-73
2022/07/24 12:02:49;;;;;;;3.42;2.58;;;26.90;99.90;;;;;;5074762;28;20041;-73
2022/07/24 12:05:27;;;;;;;2.97;2.33;;;27.10;99.90;;;;;;5056359;28;20045;-74
2022/07/24 12:07:53;;;;;;;5.88;2.80;;;27.00;99.90;;;;;;5073399;28;20497;-73
2022/07/24 12:10:23;;;;;;;4.38;2.55;;;27.00;99.90;;;;;;5056811;28;20044;-74
2022/07/24 12:12:51;;;;;;;4.57;2.80;;;27.00;99.20;;;;;;5073475;28;20043;-73
2022/07/24 12:15:17;;;;;;;4.95;2.80;;;27.00;99.90;;;;;;5056690;28;20369;-74
2022/07/24 12:18:03;;;;;;;6.55;2.75;;;27.10;99.90;;;;;;5073309;28;20051;-73
2022/07/24 12:20:43;;;;;;;4.55;2.63;;;27.20;99.50;;;;;;5073968;28;20041;-73
2022/07/24 12:23:11;;;;;;;2.95;2.55;;;27.10;99.90;;;;;;5074470;28;20049;-73
2022/07/24 12:55:21;;;;;;;5.68;2.90;;;27.50;98.00;;;;;;5070578;28;20067;-71
2022/07/24 12:57:47;;;;;;;4.00;2.67;;;27.50;98.90;;;;;;5069833;28;20044;-70
2022/07/24 13:00:13;;;;;;;6.45;2.70;;;27.50;99.20;;;;;;5069818;28;20044;-70
2022/07/24 13:02:41;;;;;;;4.90;2.85;;;27.60;98.70;;;;;;5068860;28;20531;-70
2022/07/24 13:05:07;;;;;;;3.72;3.00;;;27.60;99.00;;;;;;5069930;28;20103;-69
2022/07/24 13:07:32;;;;;;;4.88;3.15;;;27.50;98.50;;;;;;5069969;28;20049;-70
2022/07/24 13:09:58;;;;;;;5.55;2.80;;;27.60;98.70;;;;;;5069731;28;20033;-70
2022/07/24 13:12:23;;;;;;;3.13;2.83;;;27.60;98.90;;;;;;5069553;28;20072;-69